createdAt,value
2019-05-10T00:00:35.532Z,18.10
2019-05-10T00:01:35.592Z,18.40
2019-05-10T00:02:35.639Z,18.30
2019-05-10T00:03:35.675Z,18.60
2019-05-10T00:04:35.729Z,18.40
2019-05-10T00:05:35.776Z,18.20
2019-05-10T00:06:35.796Z,18.40
2019-05-10T00:07:35.866Z,18.00
2019-05-10T00:08:35.911Z,17.20
2019-05-10T00:09:35.998Z,17.30
2019-05-10T00:10:35.977Z,17.30
2019-05-10T00:11:36.034Z,17.60
2019-05-10T00:12:36.092Z,17.10
2019-05-10T00:13:36.179Z,17.00
2019-05-10T00:14:36.201Z,15.50
2019-05-10T00:15:36.202Z,15.60
2019-05-10T00:16:36.245Z,16.40
2019-05-10T00:17:36.277Z,15.70
2019-05-10T00:18:36.351Z,15.90
2019-05-10T00:19:36.359Z,15.70
2019-05-10T00:20:36.432Z,15.20
2019-05-10T00:21:36.471Z,15.20
2019-05-10T00:22:36.518Z,15.20
2019-05-10T00:23:36.568Z,14.70
2019-05-10T00:24:36.658Z,12.90
2019-05-10T00:25:36.687Z,13.60
2019-05-10T00:26:36.684Z,13.40
2019-05-10T00:27:36.772Z,12.00
2019-05-10T00:28:36.841Z,11.40
2019-05-10T00:29:36.835Z,11.80
2019-05-10T00:30:36.910Z,11.20
2019-05-10T00:31:36.951Z,9.10
2019-05-10T00:32:37.000Z,8.70
2019-05-10T00:33:36.991Z,8.60
2019-05-10T00:34:37.031Z,8.30
2019-05-10T00:35:37.072Z,7.70
2019-05-10T00:36:37.117Z,8.40
2019-05-10T00:37:37.171Z,6.40
2019-05-10T00:38:37.236Z,6.90
2019-05-10T00:39:37.358Z,6.50
2019-05-10T00:40:37.280Z,7.10
2019-05-10T00:41:37.339Z,6.60
2019-05-10T00:42:37.410Z,6.60
2019-05-10T00:43:37.442Z,6.60
2019-05-10T00:44:37.473Z,6.40
2019-05-10T00:45:37.533Z,6.70
2019-05-10T00:46:37.582Z,6.20
2019-05-10T00:47:37.652Z,5.80
2019-05-10T00:48:37.662Z,6.20
2019-05-10T00:49:37.737Z,5.80
2019-05-10T00:50:37.780Z,5.80
2019-05-10T00:51:37.791Z,5.80
2019-05-10T00:52:37.813Z,5.70
2019-05-10T00:53:37.858Z,5.10
2019-05-10T00:54:37.967Z,5.50
2019-05-10T00:55:37.966Z,5.20
2019-05-10T00:56:38.048Z,5.00
2019-05-10T00:57:38.094Z,5.00
2019-05-10T00:58:38.078Z,5.20
2019-05-10T00:59:38.208Z,5.10
2019-05-10T01:00:38.161Z,5.20
2019-05-10T01:01:38.207Z,5.20
2019-05-10T01:02:38.243Z,5.00
2019-05-10T01:03:38.307Z,5.10
2019-05-10T01:04:38.330Z,5.40
2019-05-10T01:05:38.392Z,5.60
2019-05-10T01:06:38.436Z,5.40
2019-05-10T01:07:38.480Z,5.40
2019-05-10T01:08:38.523Z,5.20
2019-05-10T01:09:38.606Z,5.50
2019-05-10T01:10:38.647Z,5.70
2019-05-10T01:11:38.654Z,5.40
2019-05-10T01:12:38.707Z,5.60
2019-05-10T01:13:38.777Z,5.50
2019-05-10T01:14:38.828Z,5.50
2019-05-10T01:15:38.807Z,5.50
2019-05-10T01:16:38.854Z,5.50
2019-05-10T01:17:38.891Z,5.80
2019-05-10T01:18:38.957Z,5.60
2019-05-10T01:19:38.996Z,5.60
2019-05-10T01:20:39.019Z,5.60
2019-05-10T01:21:39.099Z,5.60
2019-05-10T01:22:39.175Z,5.50
2019-05-10T01:23:39.174Z,5.70
2019-05-10T01:24:39.206Z,5.80
2019-05-10T01:25:39.267Z,6.10
2019-05-10T01:26:39.290Z,6.10
2019-05-10T01:27:39.347Z,5.90
2019-05-10T01:28:39.390Z,6.00
2019-05-10T01:29:39.423Z,6.30
2019-05-10T01:30:39.472Z,6.10
2019-05-10T01:31:39.516Z,6.60
2019-05-10T01:32:39.612Z,6.20
2019-05-10T01:33:39.604Z,6.90
2019-05-10T01:34:39.665Z,6.80
2019-05-10T01:35:39.693Z,6.70
2019-05-10T01:36:39.758Z,7.10
2019-05-10T01:37:39.783Z,7.10
2019-05-10T01:38:39.806Z,6.70
2019-05-10T01:39:39.862Z,6.80
2019-05-10T01:40:39.910Z,6.90
2019-05-10T01:41:39.958Z,7.10
2019-05-10T01:42:40.034Z,7.40
2019-05-10T01:43:40.040Z,7.40
2019-05-10T01:44:40.085Z,7.50
2019-05-10T01:45:40.158Z,7.80
2019-05-10T01:46:40.167Z,7.40
2019-05-10T01:47:40.222Z,8.10
2019-05-10T01:48:40.277Z,7.30
2019-05-10T01:49:40.365Z,7.60
2019-05-10T01:50:40.348Z,8.10
2019-05-10T01:51:40.371Z,7.50
2019-05-10T01:52:40.422Z,7.90
2019-05-10T01:53:40.480Z,7.70
2019-05-10T01:54:40.518Z,7.50
2019-05-10T01:55:51.360Z,7.90
2019-05-10T01:56:40.618Z,8.30
2019-05-10T01:57:40.656Z,8.00
2019-05-10T01:58:40.686Z,8.10
2019-05-10T01:59:40.726Z,8.10
2019-05-10T02:00:40.785Z,8.10
2019-05-10T02:01:40.848Z,7.90
2019-05-10T02:02:40.853Z,8.00
2019-05-10T02:03:40.911Z,8.80
2019-05-10T02:04:40.937Z,8.50
2019-05-10T02:05:40.997Z,8.80
2019-05-10T02:06:41.040Z,8.50
2019-05-10T02:07:41.099Z,8.50
2019-05-10T02:08:41.131Z,8.50
2019-05-10T02:09:41.180Z,8.60
2019-05-10T02:10:41.206Z,9.00
2019-05-10T02:11:41.253Z,8.70
2019-05-10T02:12:41.294Z,8.60
2019-05-10T02:13:41.340Z,9.70
2019-05-10T02:14:41.387Z,9.70
2019-05-10T02:15:41.432Z,9.30
2019-05-10T02:16:41.470Z,9.30
2019-05-10T02:17:41.524Z,9.20
2019-05-10T02:18:41.571Z,9.90
2019-05-10T02:19:41.603Z,10.00
2019-05-10T02:20:41.641Z,9.90
2019-05-10T02:21:41.666Z,10.00
2019-05-10T02:22:41.737Z,10.60
2019-05-10T02:23:41.780Z,11.00
2019-05-10T02:24:41.821Z,11.60
2019-05-10T02:25:41.869Z,11.70
2019-05-10T02:26:41.895Z,11.30
2019-05-10T02:27:41.932Z,12.30
2019-05-10T02:28:42.007Z,12.10
2019-05-10T02:29:42.018Z,11.50
2019-05-10T02:30:42.070Z,12.50
2019-05-10T02:31:42.164Z,12.40
2019-05-10T02:32:42.178Z,13.20
2019-05-10T02:33:42.197Z,12.70
2019-05-10T02:34:42.240Z,12.40
2019-05-10T02:35:42.291Z,13.10
2019-05-10T02:36:42.444Z,13.10
2019-05-10T02:37:42.380Z,13.20
2019-05-10T02:38:42.409Z,13.70
2019-05-10T02:39:42.458Z,14.80
2019-05-10T02:40:42.502Z,14.40
2019-05-10T02:41:42.557Z,14.40
2019-05-10T02:42:42.579Z,14.10
2019-05-10T02:43:42.641Z,15.10
2019-05-10T02:44:42.695Z,15.30
2019-05-10T02:45:42.724Z,16.00
2019-05-10T02:46:42.768Z,17.10
2019-05-10T02:47:42.810Z,16.80
2019-05-10T02:48:42.840Z,18.30
2019-05-10T02:49:42.897Z,17.20
2019-05-10T02:50:42.929Z,17.60
2019-05-10T02:51:42.981Z,18.40
2019-05-10T02:52:43.009Z,18.40
2019-05-10T02:53:43.063Z,17.70
2019-05-10T02:54:43.133Z,18.80
2019-05-10T02:55:43.149Z,19.30
2019-05-10T02:56:43.192Z,17.80
2019-05-10T02:57:43.274Z,18.20
2019-05-10T02:58:43.287Z,18.40
2019-05-10T02:59:43.339Z,19.40
2019-05-10T03:00:43.371Z,19.00
2019-05-10T03:01:43.403Z,19.10
2019-05-10T03:02:43.473Z,18.50
2019-05-10T03:03:43.500Z,19.20
2019-05-10T03:04:43.574Z,19.20
2019-05-10T03:05:48.125Z,19.90
2019-05-10T03:06:43.624Z,18.80
2019-05-10T03:07:43.678Z,19.60
2019-05-10T03:08:43.748Z,18.80
2019-05-10T03:09:43.779Z,19.20
2019-05-10T03:10:43.800Z,18.60
2019-05-10T03:11:43.849Z,19.90
2019-05-10T03:12:43.868Z,19.00
2019-05-10T03:13:43.894Z,19.30
2019-05-10T03:14:43.979Z,18.60
2019-05-10T03:15:43.986Z,19.10
2019-05-10T03:16:44.054Z,19.30
2019-05-10T03:17:44.098Z,19.40
2019-05-10T03:18:44.148Z,18.80
2019-05-10T03:19:44.160Z,18.70
2019-05-10T03:20:44.223Z,19.10
2019-05-10T03:21:44.317Z,19.00
2019-05-10T03:22:44.352Z,20.00
2019-05-10T03:23:44.366Z,18.90
2019-05-10T03:24:44.416Z,19.70
2019-05-10T03:25:44.486Z,19.80
2019-05-10T03:26:51.108Z,19.50
2019-05-10T03:27:44.527Z,19.40
2019-05-10T03:28:44.576Z,19.50
2019-05-10T03:29:44.614Z,19.30
2019-05-10T03:30:44.642Z,19.90
2019-05-10T03:31:44.696Z,20.30
2019-05-10T03:32:44.763Z,20.30
2019-05-10T03:33:44.800Z,20.30
2019-05-10T03:34:44.876Z,20.30
2019-05-10T03:35:44.873Z,19.10
2019-05-10T03:36:44.939Z,19.40
2019-05-10T03:37:44.970Z,19.30
2019-05-10T03:38:45.003Z,18.90
2019-05-10T03:39:45.036Z,18.30
2019-05-10T03:40:45.091Z,19.30
2019-05-10T03:41:45.128Z,20.10
2019-05-10T03:42:45.171Z,20.70
2019-05-10T03:43:45.237Z,19.80
2019-05-10T03:44:45.288Z,19.50
2019-05-10T03:45:45.301Z,19.50
2019-05-10T03:46:45.355Z,19.80
2019-05-10T03:47:45.398Z,20.80
2019-05-10T03:48:45.502Z,20.40
2019-05-10T03:49:45.497Z,21.80
2019-05-10T03:50:45.544Z,21.60
2019-05-10T03:51:45.572Z,21.20
2019-05-10T03:52:45.689Z,21.60
2019-05-10T03:53:45.680Z,22.10
2019-05-10T03:54:45.698Z,21.80
2019-05-10T03:55:45.722Z,21.00
2019-05-10T03:56:45.788Z,21.50
2019-05-10T03:57:45.825Z,21.40
2019-05-10T03:58:45.841Z,21.20
2019-05-10T03:59:45.925Z,21.70
2019-05-10T04:00:45.970Z,21.60
2019-05-10T04:01:46.047Z,21.80
2019-05-10T04:02:46.053Z,22.20
2019-05-10T04:03:46.099Z,22.50
2019-05-10T04:04:46.186Z,21.60
2019-05-10T04:05:46.218Z,21.30
2019-05-10T04:06:46.265Z,21.10
2019-05-10T04:07:46.246Z,20.90
2019-05-10T04:08:46.334Z,20.00
2019-05-10T04:09:46.430Z,18.80
2019-05-10T04:10:46.505Z,18.80
2019-05-10T04:11:46.541Z,19.60
2019-05-10T04:12:46.579Z,19.70
2019-05-10T04:13:46.516Z,19.90
2019-05-10T04:14:46.600Z,19.10
2019-05-10T04:15:46.668Z,19.30
2019-05-10T04:16:46.694Z,19.10
2019-05-10T04:17:50.200Z,19.00
2019-05-10T04:18:46.742Z,19.60
2019-05-10T04:19:46.864Z,17.40
2019-05-10T04:20:46.829Z,17.60
2019-05-10T04:21:46.852Z,18.80
2019-05-10T04:22:46.911Z,17.80
2019-05-10T04:23:47.110Z,17.70
2019-05-10T04:24:47.054Z,17.50
2019-05-10T04:25:47.100Z,18.40
2019-05-10T04:26:47.069Z,18.00
2019-05-10T04:27:47.172Z,17.30
2019-05-10T04:28:47.328Z,17.70
2019-05-10T04:29:47.249Z,18.60
2019-05-10T04:30:47.326Z,17.20
2019-05-10T04:31:47.348Z,17.20
2019-05-10T04:32:47.380Z,18.10
2019-05-10T04:33:47.425Z,17.60
2019-05-10T04:34:47.588Z,17.70
2019-05-10T04:35:47.507Z,17.50
2019-05-10T04:36:47.554Z,17.70
2019-05-10T04:37:47.619Z,17.10
2019-05-10T04:38:47.598Z,16.90
2019-05-10T04:39:47.790Z,17.50
2019-05-10T04:40:47.719Z,16.50
2019-05-10T04:41:47.754Z,16.70
2019-05-10T04:42:47.787Z,16.90
2019-05-10T04:43:47.859Z,16.50
2019-05-10T04:44:52.591Z,17.20
2019-05-10T04:45:48.002Z,16.70
2019-05-10T04:46:47.961Z,16.10
2019-05-10T04:47:47.984Z,16.10
2019-05-10T04:48:48.071Z,16.70
2019-05-10T04:49:48.128Z,16.00
2019-05-10T04:50:49.377Z,16.10
2019-05-10T04:51:48.153Z,16.30
2019-05-10T04:52:48.205Z,15.70
2019-05-10T04:53:48.243Z,16.10
2019-05-10T04:54:48.279Z,15.50
2019-05-10T04:55:48.324Z,15.80
2019-05-10T04:56:48.372Z,16.30
2019-05-10T04:57:51.025Z,15.40
2019-05-10T04:58:48.432Z,16.30
2019-05-10T04:59:48.484Z,15.60
2019-05-10T05:00:48.525Z,15.70
2019-05-10T05:01:48.582Z,15.20
2019-05-10T05:02:48.661Z,15.30
2019-05-10T05:03:48.667Z,15.90
2019-05-10T05:04:48.726Z,16.20
2019-05-10T05:05:48.748Z,15.40
2019-05-10T05:06:48.954Z,15.60
2019-05-10T05:07:48.838Z,15.30
2019-05-10T05:08:48.886Z,15.70
2019-05-10T05:09:48.938Z,15.70
2019-05-10T05:10:49.020Z,15.90
2019-05-10T05:11:49.011Z,15.80
2019-05-10T05:12:49.069Z,15.80
2019-05-10T05:13:49.108Z,16.60
2019-05-10T05:14:49.142Z,16.30
2019-05-10T05:15:49.192Z,16.30
2019-05-10T05:16:49.222Z,16.10
2019-05-10T05:17:49.245Z,16.50
2019-05-10T05:18:49.447Z,16.00
2019-05-10T05:19:49.412Z,16.40
2019-05-10T05:20:49.396Z,16.50
2019-05-10T05:21:49.441Z,16.60
2019-05-10T05:22:49.495Z,16.10
2019-05-10T05:23:49.534Z,16.00
2019-05-10T05:24:49.806Z,16.20
2019-05-10T05:25:49.661Z,16.60
2019-05-10T05:26:49.640Z,16.50
2019-05-10T05:28:06.121Z,15.60
2019-05-10T05:28:49.775Z,15.90
2019-05-10T05:29:49.767Z,15.90
2019-05-10T05:30:49.817Z,15.80
2019-05-10T05:31:53.921Z,16.20
2019-05-10T05:32:49.906Z,16.30
2019-05-10T05:33:49.945Z,15.90
2019-05-10T05:34:50.008Z,16.00
2019-05-10T05:35:50.040Z,16.90
2019-05-10T05:36:50.110Z,16.30
2019-05-10T05:37:50.103Z,16.50
2019-05-10T05:38:50.176Z,16.70
2019-05-10T05:39:50.213Z,16.20
2019-05-10T05:40:50.273Z,16.00
2019-05-10T05:41:52.204Z,15.80
2019-05-10T05:42:50.331Z,16.20
2019-05-10T05:43:50.362Z,16.00
2019-05-10T05:44:50.425Z,16.10
2019-05-10T05:45:50.456Z,16.40
2019-05-10T05:46:50.557Z,15.60
2019-05-10T05:47:50.538Z,16.00
2019-05-10T05:48:51.585Z,16.30
2019-05-10T05:49:50.631Z,16.20
2019-05-10T05:50:50.691Z,16.30
2019-05-10T05:51:50.738Z,17.10
2019-05-10T05:52:50.812Z,16.70
2019-05-10T05:53:50.847Z,16.70
2019-05-10T05:54:52.920Z,16.10
2019-05-10T05:55:50.913Z,16.70
2019-05-10T05:56:52.955Z,16.30
2019-05-10T05:57:50.991Z,16.80
2019-05-10T05:58:51.015Z,16.90
2019-05-10T05:59:51.070Z,16.90
2019-05-10T06:00:51.147Z,16.70
2019-05-10T06:01:51.190Z,16.70
2019-05-10T06:02:51.186Z,17.40
2019-05-10T06:03:51.259Z,16.60
2019-05-10T06:04:51.298Z,17.00
2019-05-10T06:05:51.331Z,17.30
2019-05-10T06:06:53.879Z,16.80
2019-05-10T06:07:52.409Z,17.40
2019-05-10T06:08:54.440Z,17.10
2019-05-10T06:09:51.536Z,18.00
2019-05-10T06:10:58.190Z,17.70
2019-05-10T06:11:51.601Z,18.20
2019-05-10T06:12:52.978Z,18.00
2019-05-10T06:13:51.713Z,17.70
2019-05-10T06:14:52.336Z,17.60
2019-05-10T06:15:51.810Z,17.40
2019-05-10T06:16:53.089Z,17.60
2019-05-10T06:17:57.371Z,18.00
2019-05-10T06:18:51.874Z,18.30
2019-05-10T06:19:51.927Z,17.50
2019-05-10T06:20:51.963Z,17.80
2019-05-10T06:21:57.984Z,17.80
2019-05-10T06:23:06.032Z,17.70
2019-05-10T06:23:52.138Z,17.60
2019-05-10T06:24:53.760Z,18.20
2019-05-10T06:25:52.212Z,18.30
2019-05-10T06:26:52.241Z,18.80
2019-05-10T06:27:52.276Z,19.10
2019-05-10T06:28:59.675Z,20.20
2019-05-10T06:29:52.346Z,20.30
2019-05-10T06:30:52.382Z,20.70
2019-05-10T06:31:52.453Z,20.70
2019-05-10T06:32:53.456Z,21.10
2019-05-10T06:33:52.513Z,21.70
2019-05-10T06:34:52.576Z,22.30
2019-05-10T06:35:52.601Z,22.70
2019-05-10T06:36:52.644Z,22.60
2019-05-10T06:37:52.707Z,23.20
2019-05-10T06:38:52.719Z,23.40
2019-05-10T06:39:52.777Z,23.20
2019-05-10T06:40:52.881Z,23.10
2019-05-10T06:41:56.163Z,23.60
2019-05-10T06:42:52.910Z,23.50
2019-05-10T06:43:53.168Z,24.50
2019-05-10T06:44:52.989Z,24.60
2019-05-10T06:45:53.973Z,24.30
2019-05-10T06:46:53.068Z,23.70
2019-05-10T06:47:53.593Z,24.60
2019-05-10T06:48:53.158Z,25.20
2019-05-10T06:49:53.254Z,25.00
2019-05-10T06:50:53.255Z,24.70
2019-05-10T06:51:53.273Z,25.20
2019-05-10T06:52:53.348Z,26.20
2019-05-10T06:53:53.959Z,26.40
2019-05-10T06:54:53.404Z,26.80
2019-05-10T06:55:53.455Z,26.40
2019-05-10T06:56:53.496Z,27.90
2019-05-10T06:57:58.945Z,28.10
2019-05-10T06:58:53.565Z,27.50
2019-05-10T07:00:00.338Z,28.10
2019-05-10T07:00:53.679Z,28.20
2019-05-10T07:01:53.734Z,27.50
2019-05-10T07:02:53.760Z,27.10
2019-05-10T07:03:53.807Z,29.50
2019-05-10T07:04:53.863Z,29.80
2019-05-10T07:05:53.892Z,29.90
2019-05-10T07:06:53.973Z,30.30
2019-05-10T07:07:59.075Z,28.90
2019-05-10T07:08:57.810Z,29.90
2019-05-10T07:10:12.291Z,29.50
2019-05-10T07:10:54.108Z,29.50
2019-05-10T07:11:54.146Z,29.90
2019-05-10T07:12:57.183Z,29.90
2019-05-10T07:13:54.233Z,30.20
2019-05-10T07:14:57.942Z,29.90
2019-05-10T07:15:54.311Z,28.70
2019-05-10T07:16:56.612Z,28.30
2019-05-10T07:17:54.413Z,28.70
2019-05-10T07:18:59.876Z,28.20
2019-05-10T07:19:55.355Z,27.60
2019-05-10T07:20:54.564Z,29.40
2019-05-10T07:21:54.582Z,28.70
2019-05-10T07:22:54.615Z,30.40
2019-05-10T07:23:54.671Z,28.30
2019-05-10T07:24:57.322Z,28.60
2019-05-10T07:25:54.747Z,29.20
2019-05-10T07:26:56.655Z,29.20
2019-05-10T07:27:54.817Z,27.40
2019-05-10T07:28:57.538Z,26.90
2019-05-10T07:29:54.919Z,27.20
2019-05-10T07:30:54.943Z,28.00
2019-05-10T07:31:54.984Z,27.50
2019-05-10T07:32:59.670Z,26.10
2019-05-10T07:33:55.100Z,26.30
2019-05-10T07:34:58.659Z,25.90
2019-05-10T07:35:55.186Z,26.10
2019-05-10T07:36:55.353Z,24.40
2019-05-10T07:37:55.252Z,24.30
2019-05-10T07:38:55.317Z,23.60
2019-05-10T07:39:55.332Z,23.40
2019-05-10T07:40:55.399Z,23.00
2019-05-10T07:42:00.481Z,22.60
2019-05-10T07:42:55.476Z,22.90
2019-05-10T07:44:00.710Z,22.20
2019-05-10T07:44:55.540Z,21.30
2019-05-10T07:45:58.642Z,21.80
2019-05-10T07:46:58.466Z,22.10
2019-05-10T07:47:55.719Z,21.70
2019-05-10T07:48:55.715Z,21.70
2019-05-10T07:49:55.779Z,21.50
2019-05-10T07:50:55.814Z,21.00
2019-05-10T07:52:02.120Z,21.20
2019-05-10T07:52:55.882Z,21.20
2019-05-10T07:53:57.000Z,21.50
2019-05-10T07:54:55.976Z,21.60
2019-05-10T07:55:59.847Z,20.90
2019-05-10T07:56:56.089Z,20.70
2019-05-10T07:57:59.000Z,20.70
2019-05-10T07:58:56.169Z,21.10
2019-05-10T08:00:02.798Z,22.70
2019-05-10T08:00:56.482Z,22.00
2019-05-10T08:01:56.292Z,21.80
2019-05-10T08:03:07.574Z,22.70
2019-05-10T08:03:56.386Z,21.80
2019-05-10T08:04:58.444Z,21.30
2019-05-10T08:06:01.326Z,21.40
2019-05-10T08:06:56.504Z,21.10
2019-05-10T08:07:58.596Z,20.00
2019-05-10T08:09:01.913Z,21.60
2019-05-10T08:09:56.622Z,21.00
2019-05-10T08:10:56.667Z,20.70
2019-05-10T08:12:03.290Z,21.20
2019-05-10T08:12:59.071Z,20.60
2019-05-10T08:13:57.795Z,20.80
2019-05-10T08:14:58.929Z,21.20
2019-05-10T08:15:59.303Z,20.90
2019-05-10T08:17:02.691Z,21.10
2019-05-10T08:17:58.512Z,21.00
2019-05-10T08:19:00.939Z,20.50
2019-05-10T08:19:57.056Z,21.10
2019-05-10T08:21:02.183Z,21.00
2019-05-10T08:22:01.749Z,21.60
2019-05-10T08:22:57.199Z,21.40
2019-05-10T08:23:58.987Z,20.80
2019-05-10T08:24:57.279Z,21.40
2019-05-10T08:25:57.324Z,21.70
2019-05-10T08:27:09.582Z,20.80
2019-05-10T08:27:57.440Z,20.30
2019-05-10T08:28:57.452Z,20.60
2019-05-10T08:30:17.962Z,21.60
2019-05-10T08:30:59.029Z,21.70
2019-05-10T08:31:57.567Z,21.40
2019-05-10T08:33:00.147Z,22.20
2019-05-10T08:33:59.010Z,22.10
2019-05-10T08:34:57.710Z,23.00
2019-05-10T08:36:00.473Z,22.30
2019-05-10T08:36:57.806Z,22.90
2019-05-10T08:37:57.878Z,21.80
2019-05-10T08:39:07.050Z,22.70
2019-05-10T08:39:57.960Z,22.70
2019-05-10T08:40:57.943Z,23.70
2019-05-10T08:42:04.835Z,23.20
2019-05-10T08:43:04.897Z,23.00
2019-05-10T08:43:58.092Z,22.40
2019-05-10T08:45:03.787Z,22.70
2019-05-10T08:45:58.174Z,23.80
2019-05-10T08:46:58.212Z,23.70
2019-05-10T08:48:00.646Z,24.00
2019-05-10T08:48:58.299Z,23.20
2019-05-10T08:50:13.895Z,22.60
2019-05-10T08:51:05.548Z,22.80
2019-05-10T08:51:58.448Z,23.10
2019-05-10T08:53:04.291Z,23.40
2019-05-10T08:53:58.552Z,23.70
2019-05-10T08:54:58.564Z,23.20
2019-05-10T08:55:59.089Z,22.50
2019-05-10T08:57:01.264Z,22.80
2019-05-10T08:57:58.720Z,22.80
2019-05-10T08:58:58.719Z,22.90
2019-05-10T09:00:06.595Z,23.10
2019-05-10T09:01:15.289Z,23.50
2019-05-10T09:01:58.850Z,23.00
2019-05-10T09:03:00.914Z,22.60
2019-05-10T09:04:00.787Z,23.40
2019-05-10T09:04:58.988Z,23.50
2019-05-10T09:06:03.527Z,23.80
2019-05-10T09:06:59.959Z,22.60
2019-05-10T09:08:02.445Z,22.90
2019-05-10T09:09:05.907Z,22.80
2019-05-10T09:10:02.072Z,23.10
2019-05-10T09:10:59.265Z,23.10
2019-05-10T09:12:04.188Z,23.90
2019-05-10T09:12:59.328Z,23.40
2019-05-10T09:13:59.349Z,23.60
2019-05-10T09:15:06.494Z,23.70
2019-05-10T09:16:02.243Z,23.30
2019-05-10T09:17:03.506Z,23.30
2019-05-10T09:18:04.166Z,23.20
2019-05-10T09:18:59.567Z,23.20
2019-05-10T09:19:59.610Z,24.00
2019-05-10T09:21:08.188Z,24.00
2019-05-10T09:22:01.860Z,23.10
2019-05-10T09:23:02.205Z,24.20
2019-05-10T09:24:03.244Z,23.70
2019-05-10T09:25:01.770Z,23.40
2019-05-10T09:26:02.022Z,23.60
2019-05-10T09:27:01.881Z,24.40
2019-05-10T09:28:02.364Z,24.00
2019-05-10T09:29:01.662Z,24.50
2019-05-10T09:30:02.755Z,23.30
2019-05-10T09:31:15.258Z,22.40
2019-05-10T09:32:03.746Z,23.20
2019-05-10T09:33:01.040Z,23.40
2019-05-10T09:34:02.491Z,23.30
2019-05-10T09:35:07.498Z,23.40
2019-05-10T09:36:02.758Z,23.70
2019-05-10T09:37:02.786Z,23.70
2019-05-10T09:38:01.970Z,23.50
2019-05-10T09:39:03.224Z,24.10
2019-05-10T09:40:08.094Z,24.10
2019-05-10T09:41:02.470Z,25.00
2019-05-10T09:42:08.288Z,24.10
2019-05-10T09:43:07.491Z,25.30
2019-05-10T09:44:02.830Z,24.50
2019-05-10T09:45:03.075Z,24.70
2019-05-10T09:46:02.740Z,24.60
2019-05-10T09:47:01.897Z,24.70
2019-05-10T09:48:02.543Z,24.40
2019-05-10T09:49:13.709Z,24.00
2019-05-10T09:50:02.284Z,24.90
2019-05-10T09:51:03.919Z,24.20
2019-05-10T09:52:04.492Z,24.60
2019-05-10T09:53:01.029Z,25.20
2019-05-10T09:54:01.115Z,24.10
2019-05-10T09:55:04.121Z,23.30
2019-05-10T09:56:03.085Z,23.60
2019-05-10T09:57:01.216Z,23.50
2019-05-10T09:58:01.250Z,23.40
2019-05-10T09:59:01.312Z,23.10
2019-05-10T10:00:01.330Z,23.20
2019-05-10T10:01:13.807Z,23.00
2019-05-10T10:02:04.942Z,23.50
2019-05-10T10:03:01.914Z,24.30
2019-05-10T10:04:02.345Z,23.90
2019-05-10T10:05:01.555Z,23.10
2019-05-10T10:06:07.308Z,23.20
2019-05-10T10:07:01.671Z,23.70
2019-05-10T10:08:03.694Z,23.50
2019-05-10T10:09:01.724Z,23.50
2019-05-10T10:10:01.759Z,23.70
2019-05-10T10:11:14.056Z,23.80
2019-05-10T10:12:03.213Z,23.60
2019-05-10T10:13:08.420Z,24.20
2019-05-10T10:14:02.297Z,24.20
2019-05-10T10:15:01.963Z,23.70
2019-05-10T10:16:04.010Z,23.40
2019-05-10T10:17:03.168Z,23.30
2019-05-10T10:18:02.096Z,24.30
2019-05-10T10:19:02.134Z,23.90
2019-05-10T10:20:02.219Z,23.20
2019-05-10T10:21:02.227Z,22.90
2019-05-10T10:22:05.466Z,23.50
2019-05-10T10:23:02.319Z,23.10
2019-05-10T10:24:12.691Z,23.00
2019-05-10T10:25:02.395Z,22.30
2019-05-10T10:26:02.459Z,23.20
2019-05-10T10:27:02.520Z,22.70
2019-05-10T10:28:02.534Z,23.20
2019-05-10T10:29:02.586Z,22.60
2019-05-10T10:30:06.620Z,23.20
2019-05-10T10:31:05.284Z,22.90
2019-05-10T10:32:02.713Z,22.10
2019-05-10T10:33:05.705Z,21.70
2019-05-10T10:34:03.322Z,22.60
2019-05-10T10:35:02.852Z,22.90
2019-05-10T10:36:05.199Z,22.10
2019-05-10T10:37:02.922Z,21.00
2019-05-10T10:38:05.111Z,22.00
2019-05-10T10:39:03.020Z,21.40
2019-05-10T10:40:05.593Z,21.10
2019-05-10T10:41:03.097Z,20.10
2019-05-10T10:42:08.765Z,21.40
2019-05-10T10:43:03.202Z,21.30
2019-05-10T10:44:03.246Z,20.70
2019-05-10T10:45:03.305Z,21.10
2019-05-10T10:46:03.339Z,21.10
2019-05-10T10:47:03.370Z,21.30
2019-05-10T10:48:10.589Z,19.70
2019-05-10T10:49:05.536Z,19.40
2019-05-10T10:50:09.313Z,19.00
2019-05-10T10:51:03.558Z,19.80
2019-05-10T10:52:05.660Z,19.80
2019-05-10T10:53:03.688Z,19.60
2019-05-10T10:54:03.697Z,19.40
2019-05-10T10:55:05.576Z,19.20
2019-05-10T10:56:04.106Z,20.60
2019-05-10T10:57:03.812Z,19.90
2019-05-10T10:58:03.855Z,20.60
2019-05-10T10:59:03.928Z,19.90
2019-05-10T11:00:03.957Z,19.80
2019-05-10T11:01:10.897Z,19.20
2019-05-10T11:02:28.903Z,18.90
2019-05-10T11:03:04.097Z,18.90
2019-05-10T11:04:08.015Z,19.30
2019-05-10T11:05:04.174Z,18.50
2019-05-10T11:06:04.227Z,18.00
2019-05-10T11:07:10.268Z,18.30
2019-05-10T11:08:04.307Z,18.10
2019-05-10T11:09:04.398Z,17.80
2019-05-10T11:10:14.966Z,18.20
2019-05-10T11:11:04.437Z,16.80
2019-05-10T11:12:04.567Z,17.30
2019-05-10T11:13:11.014Z,17.50
2019-05-10T11:14:07.277Z,17.20
2019-05-10T11:15:04.640Z,18.20
2019-05-10T11:16:11.124Z,17.80
2019-05-10T11:17:04.722Z,17.20
2019-05-10T11:18:04.785Z,17.80
2019-05-10T11:19:13.235Z,17.00
2019-05-10T11:20:08.303Z,16.90
2019-05-10T11:21:04.901Z,15.90
2019-05-10T11:22:09.723Z,16.10
2019-05-10T11:23:05.009Z,16.60
2019-05-10T11:24:10.195Z,15.80
2019-05-10T11:25:09.400Z,16.10
2019-05-10T11:26:05.167Z,15.70
2019-05-10T11:27:07.178Z,15.00
2019-05-10T11:28:05.253Z,15.60
2019-05-10T11:29:05.304Z,15.40
2019-05-10T11:30:05.316Z,14.60
2019-05-10T11:31:05.391Z,14.50
2019-05-10T11:32:16.772Z,14.60
2019-05-10T11:33:05.488Z,14.10
2019-05-10T11:34:06.198Z,14.40
2019-05-10T11:35:05.709Z,13.30
2019-05-10T11:36:08.693Z,14.00
2019-05-10T11:37:05.679Z,13.40
2019-05-10T11:38:06.590Z,13.60
2019-05-10T11:39:06.119Z,14.00
2019-05-10T11:40:05.831Z,13.20
2019-05-10T11:41:07.012Z,12.70
2019-05-10T11:42:07.322Z,13.80
2019-05-10T11:43:05.959Z,13.80
2019-05-10T11:44:09.084Z,13.70
2019-05-10T11:45:06.097Z,14.40
2019-05-10T11:46:06.152Z,13.30
2019-05-10T11:47:22.501Z,13.10
2019-05-10T11:48:06.264Z,12.40
2019-05-10T11:49:06.300Z,14.00
2019-05-10T11:50:06.677Z,12.50
2019-05-10T11:51:12.358Z,12.40
2019-05-10T11:52:09.872Z,12.70
2019-05-10T11:53:13.317Z,12.30
2019-05-10T11:54:06.539Z,12.40
2019-05-10T11:55:06.603Z,12.80
2019-05-10T11:56:07.797Z,11.80
2019-05-10T11:57:10.904Z,12.10
2019-05-10T11:58:08.880Z,11.20
2019-05-10T11:59:06.804Z,11.80
2019-05-10T12:00:14.640Z,12.50
2019-05-10T12:01:16.408Z,11.90
2019-05-10T12:02:10.252Z,12.10
2019-05-10T12:05:15.903Z,12.40
2019-05-10T12:06:09.063Z,12.30
2019-05-10T12:07:09.809Z,12.60
2019-05-10T12:08:07.320Z,13.50
2019-05-10T12:09:07.319Z,13.10
2019-05-10T12:10:14.424Z,13.60
2019-05-10T12:11:21.089Z,13.80
2019-05-10T12:12:07.482Z,13.70
2019-05-10T12:13:15.895Z,13.80
2019-05-10T12:14:07.589Z,13.70
2019-05-10T12:15:07.647Z,14.30
2019-05-10T12:16:07.702Z,13.50
2019-05-10T12:17:07.748Z,13.60
2019-05-10T12:18:07.802Z,12.70
2019-05-10T12:19:16.980Z,12.80
2019-05-10T12:20:07.898Z,15.00
2019-05-10T12:21:09.614Z,14.40
2019-05-10T12:22:08.014Z,13.30
2019-05-10T12:23:13.426Z,12.90
2019-05-10T12:24:26.499Z,14.60
2019-05-10T12:25:34.842Z,14.10
2019-05-10T12:26:04.972Z,12.70
2019-05-10T12:26:16.032Z,12.30
2019-05-10T12:27:18.530Z,14.30
2019-05-10T12:28:08.351Z,13.60
2019-05-10T12:29:13.781Z,13.50
2019-05-10T12:30:08.434Z,13.30
2019-05-10T12:31:15.229Z,13.80
2019-05-10T12:32:10.377Z,13.20
2019-05-10T12:33:12.427Z,12.70
2019-05-10T12:34:12.811Z,14.10
2019-05-10T12:35:08.698Z,14.10
2019-05-10T12:36:13.022Z,14.30
2019-05-10T12:37:08.773Z,13.90
2019-05-10T12:38:11.202Z,14.50
2019-05-10T12:39:11.390Z,14.40
2019-05-10T12:40:11.861Z,14.10
2019-05-10T12:41:08.975Z,14.80
2019-05-10T12:42:11.306Z,14.80
2019-05-10T12:43:11.001Z,14.40
2019-05-10T12:44:11.101Z,14.00
2019-05-10T12:45:09.197Z,13.80
2019-05-10T12:46:10.530Z,15.10
2019-05-10T12:47:11.400Z,15.00
2019-05-10T12:48:09.342Z,14.70
2019-05-10T12:49:11.808Z,13.80
2019-05-10T12:50:09.444Z,14.40
2019-05-10T12:51:12.602Z,13.80
2019-05-10T12:52:14.158Z,14.30
2019-05-10T12:53:15.295Z,14.30
2019-05-10T12:54:11.290Z,13.50
2019-05-10T12:55:09.724Z,13.80
2019-05-10T12:56:09.826Z,13.80
2019-05-10T12:57:09.820Z,13.40
2019-05-10T12:58:09.870Z,13.20